Time;durP1;ratioP1;P1;durP2;ratioP2;P2;SDS_P1;SDS_P2;PMS_P1;PMS_P2;Temp;Humidity;BMP_temperature;BMP_pressure;BME280_temperature;BME280_humidity;BME280_pressure;Samples;Min_cycle;Max_cycle;Signal;HPM_P1;HPM_P2
2022/09/07 00:02:10;;;;;;;0.00;0.00;;;;;;;18.06;83.21;100199.84;5074255;28;20171;-73
2022/09/07 00:04:35;;;;;;;0.00;0.00;;;;;;;18.01;82.92;100189.13;5073532;28;20215;-74
2022/09/07 00:07:00;;;;;;;0.00;0.00;;;;;;;17.89;83.30;100194.81;5072486;28;20369;-74
2022/09/07 00:09:26;;;;;;;0.00;0.00;;;;;;;18.03;82.68;100195.06;5072493;28;20209;-74
2022/09/07 00:11:51;;;;;;;0.00;0.00;;;;;;;18.03;82.56;100200.59;5073641;28;20175;-74
2022/09/07 00:14:16;;;;;;;0.00;0.00;;;;;;;18.07;82.63;100210.53;5073134;28;20178;-73
2022/09/07 00:16:42;;;;;;;0.00;0.00;;;;;;;18.11;82.39;100210.63;5073778;28;20367;-74
2022/09/07 00:19:07;;;;;;;0.00;0.00;;;;;;;18.11;81.95;100202.34;5073465;28;20171;-73
2022/09/07 00:21:32;;;;;;;0.00;0.00;;;;;;;17.91;81.62;100203.53;5073580;28;20175;-74
2022/09/07 00:23:58;;;;;;;0.00;0.00;;;;;;;17.88;82.07;100205.06;5073203;28;20259;-74
2022/09/07 00:26:26;;;;;;;0.00;0.00;;;;;;;17.91;82.01;100220.13;5073485;28;20195;-73
2022/09/07 00:28:55;;;;;;;0.00;0.00;;;;;;;18.04;81.46;100218.78;5073155;28;20701;-74
2022/09/07 00:31:22;;;;;;;0.00;0.00;;;;;;;18.16;80.78;100212.28;5073175;28;20222;-74
2022/09/07 00:33:49;;;;;;;0.30;0.30;;;;;;;18.11;80.81;100216.97;5072982;28;20171;-73
2022/09/07 00:36:17;;;;;;;0.00;0.00;;;;;;;18.10;80.78;100220.09;5073197;28;20517;-74
2022/09/07 00:38:42;;;;;;;0.00;0.00;;;;;;;17.97;80.97;100225.00;5073142;28;20179;-73
2022/09/07 00:41:08;;;;;;;0.00;0.00;;;;;;;18.07;80.63;100218.03;5072561;28;20346;-73
2022/09/07 00:43:40;;;;;;;0.00;0.00;;;;;;;18.08;80.78;100214.09;5072657;28;20673;-72
2022/09/07 00:46:15;;;;;;;0.00;0.00;;;;;;;17.86;81.39;100212.94;5072073;28;20229;-75
2022/09/07 00:48:50;;;;;;;0.00;0.00;;;;;;;17.81;81.79;100202.97;5073156;28;20193;-75
2022/09/07 00:51:24;;;;;;;0.00;0.00;;;;;;;17.91;81.57;100203.53;5072771;28;20264;-75
2022/09/07 00:53:57;;;;;;;0.00;0.00;;;;;;;17.91;81.16;100198.00;5072661;28;20188;-74
2022/09/07 00:56:27;;;;;;;0.07;0.07;;;;;;;17.96;81.11;100201.28;5072763;28;20179;-75
2022/09/07 00:58:53;;;;;;;0.00;0.00;;;;;;;18.02;80.57;100201.78;5071523;28;20266;-74
2022/09/07 01:01:19;;;;;;;0.00;0.00;;;;;;;17.80;81.26;100197.81;5072668;28;20194;-74
2022/09/07 01:03:50;;;;;;;0.00;0.00;;;;;;;17.86;81.46;100209.38;5072327;28;20225;-74
2022/09/07 01:06:26;;;;;;;0.00;0.00;;;;;;;17.83;81.43;100203.41;5072754;28;20206;-75
2022/09/07 01:08:53;;;;;;;0.00;0.00;;;;;;;17.58;82.69;100191.03;5072665;28;20649;-75
2022/09/07 01:11:21;;;;;;;0.00;0.00;;;;;;;17.53;83.21;100189.38;5072371;28;20706;-74
2022/09/07 01:13:48;;;;;;;0.00;0.00;;;;;;;17.54;83.67;100182.69;5072676;28;20533;-75
2022/09/07 01:16:53;;;;;;;0.00;0.00;;;;;;;17.26;84.26;100171.06;5072508;28;20206;-75
2022/09/07 01:19:43;;;;;;;0.03;0.03;;;;;;;16.99;86.54;100177.59;5071961;28;20220;-75
2022/09/07 01:22:20;;;;;;;0.00;0.00;;;;;;;17.19;86.52;100177.22;5072424;28;20547;-74
2022/09/07 01:25:27;;;;;;;0.10;0.10;;;;;;;17.14;87.21;100177.53;5071879;28;20205;-75
2022/09/07 01:28:08;;;;;;;0.00;0.00;;;;;;;17.04;87.87;100177.28;5048623;28;20194;-75
2022/09/07 01:30:37;;;;;;;0.00;0.00;;;;;;;17.01;88.80;100178.00;5072078;28;20563;-74
2022/09/07 01:33:10;;;;;;;0.00;0.00;;;;;;;17.23;88.22;100169.84;5072048;28;20178;-75
2022/09/07 01:35:59;;;;;;;0.00;0.00;;;;;;;17.10;87.90;100171.13;5072086;28;20582;-75
2022/09/07 01:38:40;;;;;;;0.00;0.00;;;;;;;17.16;87.95;100168.88;5072445;28;20574;-75
2022/09/07 01:41:21;;;;;;;0.00;0.00;;;;;;;17.19;87.76;100157.09;5071750;28;20170;-74
2022/09/07 01:44:01;;;;;;;0.30;0.30;;;;;;;17.03;88.22;100153.59;5071515;28;20286;-75
2022/09/07 01:46:30;;;;;;;0.00;0.00;;;;;;;16.92;89.00;100158.88;5071962;28;20372;-74
2022/09/07 01:49:12;;;;;;;0.00;0.00;;;;;;;17.14;88.65;100165.69;5070512;28;20175;-75
2022/09/07 01:51:42;;;;;;;0.00;0.00;;;;;;;17.09;88.34;100155.72;5071659;28;20163;-75
2022/09/07 01:54:32;;;;;;;0.00;0.00;;;;;;;16.90;89.38;100161.22;5071485;28;20618;-75
2022/09/07 01:57:03;;;;;;;0.00;0.00;;;;;;;17.12;88.69;100157.75;5071220;28;20339;-74
2022/09/07 01:59:37;;;;;;;0.00;0.00;;;;;;;17.28;87.59;100151.38;5071632;28;20698;-75
2022/09/07 02:02:05;;;;;;;0.00;0.00;;;;;;;17.15;87.43;100148.75;5071675;28;20174;-75
2022/09/07 02:04:58;;;;;;;0.00;0.00;;;;;;;16.96;88.58;100143.22;5069856;28;20704;-75
2022/09/07 02:07:26;;;;;;;0.00;0.00;;;;;;;16.85;89.44;100139.44;5051575;28;20217;-75
2022/09/07 02:10:01;;;;;;;0.00;0.00;;;;;;;16.76;90.46;100139.63;5071254;28;20599;-75
2022/09/07 02:12:35;;;;;;;0.00;0.00;;;;;;;16.54;91.68;100130.06;5071589;28;20235;-75
2022/09/07 02:15:06;;;;;;;0.00;0.00;;;;;;;16.36;93.10;100131.59;5071050;28;20604;-74
2022/09/07 02:18:08;;;;;;;0.00;0.00;;;;;;;16.24;94.07;100134.47;5071319;28;20178;-74
2022/09/07 02:20:38;;;;;;;0.00;0.00;;;;;;;16.19;95.11;100130.00;5028650;28;20855;-75
2022/09/07 02:23:10;;;;;;;0.00;0.00;;;;;;;16.29;95.30;100131.41;5063917;28;20187;-75
2022/09/07 02:25:40;;;;;;;0.00;0.00;;;;;;;16.33;95.47;100135.84;5070909;28;20171;-75
2022/09/07 02:28:13;;;;;;;0.00;0.00;;;;;;;16.30;95.44;100133.81;5071157;28;20215;-75
2022/09/07 02:30:38;;;;;;;0.00;0.00;;;;;;;16.25;96.04;100130.53;5071254;28;20534;-75
2022/09/07 02:33:04;;;;;;;0.00;0.00;;;;;;;16.36;96.36;100131.59;5071331;28;20175;-75
2022/09/07 02:35:30;;;;;;;0.00;0.00;;;;;;;16.62;95.16;100131.78;5070800;28;20633;-74
2022/09/07 02:37:57;;;;;;;0.00;0.00;;;;;;;16.80;94.24;100132.25;5070868;28;20178;-75
2022/09/07 02:40:22;;;;;;;0.00;0.00;;;;;;;16.87;93.22;100132.38;5070202;28;20585;-75
2022/09/07 02:42:48;;;;;;;0.00;0.00;;;;;;;16.96;92.96;100132.19;5070830;28;20320;-75
2022/09/07 02:45:15;;;;;;;0.00;0.00;;;;;;;16.99;92.54;100130.66;5070325;28;20210;-75
2022/09/07 02:48:02;;;;;;;0.00;0.00;;;;;;;17.02;92.45;100130.72;5071075;28;20257;-75
2022/09/07 02:50:54;;;;;;;0.43;0.33;;;;;;;17.00;92.19;100121.22;5070560;28;20205;-75
2022/09/07 02:53:37;;;;;;;0.00;0.00;;;;;;;16.90;93.11;100117.84;5071106;28;20209;-75
2022/09/07 02:56:11;;;;;;;0.00;0.00;;;;;;;16.78;93.97;100115.25;5070442;28;20664;-74
2022/09/07 02:59:14;;;;;;;0.00;0.00;;;;;;;16.76;94.53;100105.72;5069307;28;20206;-74
2022/09/07 03:01:57;;;;;;;0.03;0.03;;;;;;;16.72;94.86;100099.34;5070403;28;20186;-74
2022/09/07 03:04:53;;;;;;;0.00;0.00;;;;;;;16.68;96.48;100098.47;5070509;28;20283;-75
2022/09/07 03:07:23;;;;;;;0.07;0.07;;;;;;;16.70;96.23;100098.91;5070034;28;20228;-74
2022/09/07 03:09:53;;;;;;;0.10;0.10;;;;;;;16.61;96.78;100088.03;5070337;28;20253;-75
2022/09/07 03:12:19;;;;;;;0.00;0.00;;;;;;;16.66;97.32;100096.84;5070696;28;20568;-75
2022/09/07 03:14:45;;;;;;;0.20;0.20;;;;;;;16.84;96.44;100116.56;5070339;28;20186;-74
2022/09/07 03:17:10;;;;;;;1.93;1.80;;;;;;;16.79;95.55;100162.97;5070547;28;20202;-75
2022/09/07 03:19:36;;;;;;;6.50;3.43;;;;;;;16.60;96.66;100236.19;5070135;28;20224;-74
2022/09/07 03:22:02;;;;;;;0.80;0.80;;;;;;;16.60;96.89;100203.06;5070280;28;20638;-74
2022/09/07 03:24:28;;;;;;;0.00;0.00;;;;;;;16.64;97.03;100159.84;5068788;28;20216;-74
2022/09/07 03:26:53;;;;;;;0.10;0.10;;;;;;;16.71;96.77;100163.94;5068862;28;20277;-74
2022/09/07 03:29:19;;;;;;;0.30;0.20;;;;;;;16.85;95.80;100178.06;5068968;28;20643;-74
2022/09/07 03:31:44;;;;;;;0.00;0.00;;;;;;;16.92;95.03;100168.00;5070135;28;20182;-74
2022/09/07 03:34:10;;;;;;;0.17;0.17;;;;;;;16.81;95.26;100155.91;5070376;28;20665;-75
2022/09/07 03:36:36;;;;;;;0.00;0.00;;;;;;;16.93;95.34;100166.84;5070206;28;20171;-75
2022/09/07 03:39:02;;;;;;;0.53;0.53;;;;;;;17.08;95.12;100181.75;5069810;28;20625;-74
2022/09/07 03:41:27;;;;;;;0.00;0.00;;;;;;;17.06;94.64;100166.69;5070041;28;20174;-74
2022/09/07 03:43:53;;;;;;;0.60;0.60;;;;;;;17.12;96.07;100174.31;5069733;28;20729;-75
2022/09/07 03:46:19;;;;;;;0.10;0.10;;;;;;;17.16;98.13;100172.44;5070174;28;20180;-75
2022/09/07 03:48:46;;;;;;;0.83;0.83;;;;;;;17.06;99.87;100177.72;5070179;28;20213;-75
2022/09/07 03:51:13;;;;;;;0.50;0.50;;;;;;;16.95;100.00;100174.75;5069900;28;20259;-75
2022/09/07 03:53:41;;;;;;;0.10;0.10;;;;;;;16.89;100.00;100171.44;5069853;28;20642;-75
2022/09/07 03:56:09;;;;;;;0.00;0.00;;;;;;;16.85;100.00;100178.06;5069842;28;20190;-75
2022/09/07 03:58:36;;;;;;;0.73;0.60;;;;;;;16.82;100.00;100171.31;5070201;28;20257;-75
2022/09/07 04:01:07;;;;;;;0.87;0.87;;;;;;;16.72;100.00;100166.34;5069835;28;20532;-75
2022/09/07 04:03:33;;;;;;;0.13;0.13;;;;;;;16.64;100.00;100170.88;5069609;28;20510;-75
2022/09/07 04:06:00;;;;;;;0.43;0.43;;;;;;;16.59;100.00;100173.09;5070261;28;20622;-75
2022/09/07 04:08:28;;;;;;;1.30;1.10;;;;;;;16.48;100.00;100172.03;5068537;28;20179;-75
2022/09/07 04:10:56;;;;;;;0.87;0.87;;;;;;;16.43;100.00;100164.84;5069968;28;20179;-75
2022/09/07 04:13:22;;;;;;;0.10;0.10;;;;;;;16.38;100.00;100164.31;5069740;28;20269;-75
2022/09/07 04:15:47;;;;;;;0.73;0.73;;;;;;;16.36;100.00;100162.72;5069641;28;20185;-75
2022/09/07 04:18:13;;;;;;;0.00;0.00;;;;;;;16.42;100.00;100163.25;5069858;28;20182;-76
2022/09/07 04:20:38;;;;;;;0.00;0.00;;;;;;;16.45;100.00;100139.66;5072917;28;20570;-76
2022/09/07 04:23:03;;;;;;;0.67;0.67;;;;;;;16.40;100.00;100150.97;5073533;28;20273;-75
2022/09/07 04:25:29;;;;;;;0.40;0.40;;;;;;;16.31;100.00;100151.94;5073104;28;20182;-75
2022/09/07 04:27:55;;;;;;;0.77;0.77;;;;;;;16.27;100.00;100142.00;5073561;28;20179;-75
2022/09/07 04:30:21;;;;;;;0.13;0.13;;;;;;;16.27;100.00;100139.25;5073240;28;20209;-75
2022/09/07 04:32:46;;;;;;;0.00;0.00;;;;;;;16.34;100.00;100150.44;5073351;28;20572;-75
2022/09/07 04:35:13;;;;;;;0.67;0.67;;;;;;;16.44;100.00;100154.63;5072896;28;20174;-75
2022/09/07 04:37:38;;;;;;;0.77;0.77;;;;;;;16.52;100.00;100159.94;5073215;28;20196;-75
2022/09/07 04:40:04;;;;;;;0.87;0.87;;;;;;;16.54;100.00;100154.06;5073200;28;20269;-75
2022/09/07 04:42:29;;;;;;;0.10;0.10;;;;;;;16.58;100.00;100147.47;5073131;28;20572;-75
2022/09/07 04:44:55;;;;;;;0.27;0.27;;;;;;;16.69;100.00;100158.00;5072849;28;20230;-74
2022/09/07 04:47:21;;;;;;;1.37;1.27;;;;;;;16.65;100.00;100163.41;5072932;28;20178;-74
2022/09/07 04:49:49;;;;;;;0.87;0.87;;;;;;;16.63;100.00;100160.19;5072838;28;20221;-75
2022/09/07 04:52:16;;;;;;;0.10;0.10;;;;;;;16.72;100.00;100160.81;5073113;28;20185;-75
2022/09/07 04:54:41;;;;;;;0.20;0.20;;;;;;;16.82;100.00;100165.00;5072752;28;20170;-75
2022/09/07 04:57:08;;;;;;;0.00;0.00;;;;;;;16.92;100.00;100161.66;5071426;28;20236;-75
2022/09/07 04:59:34;;;;;;;0.00;0.00;;;;;;;16.95;100.00;100163.72;5072667;28;20714;-75
2022/09/07 05:01:59;;;;;;;0.00;0.00;;;;;;;16.92;100.00;100169.94;5072743;28;20171;-76
2022/09/07 05:04:24;;;;;;;0.17;0.17;;;;;;;16.82;100.00;100154.75;5072545;28;20202;-76
2022/09/07 05:06:52;;;;;;;0.00;0.00;;;;;;;16.62;100.00;100162.13;5072615;28;20676;-76
2022/09/07 05:09:17;;;;;;;0.00;0.00;;;;;;;16.81;100.00;100172.47;5072590;28;20574;-76
2022/09/07 05:11:43;;;;;;;0.20;0.20;;;;;;;16.97;100.00;100177.94;5072566;28;20171;-76
2022/09/07 05:14:09;;;;;;;0.20;0.20;;;;;;;16.98;100.00;100174.03;5072277;28;20174;-75
2022/09/07 05:16:34;;;;;;;0.00;0.00;;;;;;;16.95;100.00;100174.75;5072422;28;20755;-75
2022/09/07 05:19:03;;;;;;;0.00;0.00;;;;;;;17.00;100.00;100174.47;5072437;28;20171;-75
2022/09/07 05:21:31;;;;;;;0.00;0.00;;;;;;;17.08;100.00;100173.47;5072214;28;20353;-75
2022/09/07 05:23:58;;;;;;;0.00;0.00;;;;;;;17.10;100.00;100173.09;5072223;28;20199;-73
2022/09/07 05:26:26;;;;;;;0.00;0.00;;;;;;;16.90;100.00;100178.56;5072348;28;20661;-76
2022/09/07 05:28:52;;;;;;;0.83;0.83;;;;;;;16.48;100.00;100172.84;5072624;28;20185;-76
2022/09/07 05:31:20;;;;;;;0.00;0.00;;;;;;;16.42;100.00;100167.97;5071413;28;20167;-75
2022/09/07 05:33:47;;;;;;;0.00;0.00;;;;;;;16.46;100.00;100169.63;5071871;28;20177;-75
2022/09/07 05:36:13;;;;;;;0.00;0.00;;;;;;;16.63;100.00;100163.72;5072177;28;20210;-75
2022/09/07 05:38:38;;;;;;;0.00;0.00;;;;;;;16.68;100.00;100161.91;5072115;28;20211;-76
2022/09/07 05:41:14;;;;;;;0.00;0.00;;;;;;;16.77;100.00;100159.72;5071575;28;20194;-75
2022/09/07 05:43:40;;;;;;;0.00;0.00;;;;;;;16.73;100.00;100145.06;5071505;28;20284;-75
2022/09/07 05:46:06;;;;;;;0.37;0.37;;;;;;;16.53;100.00;100136.72;5071893;28;20199;-76
2022/09/07 05:48:32;;;;;;;0.00;0.00;;;;;;;16.61;100.00;100146.75;5071886;28;20244;-75
2022/09/07 05:50:57;;;;;;;0.00;0.00;;;;;;;16.52;100.00;100139.84;5070307;28;20637;-76
2022/09/07 05:53:23;;;;;;;0.00;0.00;;;;;;;16.55;100.00;100141.88;5071635;28;20174;-75
2022/09/07 05:55:50;;;;;;;0.00;0.00;;;;;;;16.45;100.00;100115.66;5071298;28;20182;-75
2022/09/07 05:58:17;;;;;;;0.00;0.00;;;;;;;16.34;100.00;100111.84;5071997;28;20645;-75
2022/09/07 06:00:44;;;;;;;0.17;0.17;;;;;;;16.27;100.00;100106.97;5071528;28;20166;-76
2022/09/07 06:03:10;;;;;;;0.00;0.00;;;;;;;16.30;100.00;100094.41;5071447;28;20938;-76
2022/09/07 06:05:35;;;;;;;0.00;0.00;;;;;;;16.18;100.00;100070.50;5071232;28;20593;-76
2022/09/07 06:08:01;;;;;;;0.07;0.07;;;;;;;16.26;100.00;100071.50;5071396;28;20284;-76
2022/09/07 06:10:30;;;;;;;0.47;0.47;;;;;;;16.41;100.00;100080.88;5071293;28;20177;-76
2022/09/07 06:12:55;;;;;;;0.00;0.00;;;;;;;16.52;100.00;100084.69;5071347;28;20535;-75
2022/09/07 06:15:21;;;;;;;0.00;0.00;;;;;;;16.57;100.00;100104.50;5071044;28;20167;-76
2022/09/07 06:17:46;;;;;;;0.00;0.00;;;;;;;16.65;100.00;100103.50;5071360;28;20653;-76
2022/09/07 06:20:11;;;;;;;0.00;0.00;;;;;;;16.68;100.00;100103.97;5071092;28;20174;-75
2022/09/07 06:22:37;;;;;;;0.00;0.00;;;;;;;16.75;100.00;100095.84;5071128;28;20182;-76
2022/09/07 06:25:03;;;;;;;0.00;0.00;;;;;;;16.82;100.00;100101.53;5070884;28;20202;-75
2022/09/07 06:27:29;;;;;;;0.00;0.00;;;;;;;16.86;100.00;100100.44;5071279;28;20565;-76
2022/09/07 06:29:54;;;;;;;0.27;0.27;;;;;;;16.93;100.00;100095.06;5071000;28;20175;-76
2022/09/07 06:32:20;;;;;;;0.00;0.00;;;;;;;16.99;100.00;100092.81;5071017;28;20699;-75
2022/09/07 06:34:45;;;;;;;0.47;0.47;;;;;;;16.93;100.00;100084.03;5070698;28;20232;-75
2022/09/07 06:37:11;;;;;;;0.00;0.00;;;;;;;16.92;100.00;100084.38;5070704;28;20206;-74
2022/09/07 06:39:36;;;;;;;0.60;0.60;;;;;;;17.04;100.00;100087.00;5070802;28;20209;-75
2022/09/07 06:42:03;;;;;;;0.00;0.00;;;;;;;17.17;100.00;100085.69;5071070;28;20388;-75
2022/09/07 06:44:28;;;;;;;0.00;0.00;;;;;;;17.20;100.00;100103.47;5070460;28;20208;-75
2022/09/07 06:46:54;;;;;;;0.40;0.40;;;;;;;17.25;100.00;100109.53;5070767;28;20578;-75
2022/09/07 06:49:19;;;;;;;0.30;0.30;;;;;;;17.35;100.00;100104.56;5070482;28;20166;-75
2022/09/07 06:51:45;;;;;;;0.00;0.00;;;;;;;17.36;100.00;100103.38;5070718;28;20177;-75
2022/09/07 06:54:10;;;;;;;1.60;0.97;;;;;;;17.41;100.00;100103.91;5070300;28;20175;-75
2022/09/07 06:56:35;;;;;;;0.00;0.00;;;;;;;17.48;100.00;100109.56;5070590;28;20187;-75
2022/09/07 06:59:01;;;;;;;0.00;0.00;;;;;;;17.51;100.00;100100.56;5071052;28;20195;-75
2022/09/07 07:01:28;;;;;;;2.10;0.83;;;;;;;17.68;100.00;100113.13;5070508;28;20244;-75
2022/09/07 07:03:53;;;;;;;0.00;0.00;;;;;;;17.79;100.00;100119.66;5070057;28;20197;-75
2022/09/07 07:06:19;;;;;;;0.70;0.70;;;;;;;17.88;100.00;100132.41;5070625;28;20570;-76
2022/09/07 07:08:45;;;;;;;0.30;0.30;;;;;;;17.99;100.00;100138.94;5070650;28;20163;-75
2022/09/07 07:11:13;;;;;;;0.03;0.03;;;;;;;18.13;100.00;100150.22;5070378;28;20660;-75
2022/09/07 07:13:40;;;;;;;0.70;0.70;;;;;;;18.24;100.00;100145.69;5070240;28;20174;-75
2022/09/07 07:16:08;;;;;;;0.00;0.00;;;;;;;18.34;100.00;100147.81;5070423;28;20197;-75
2022/09/07 07:18:34;;;;;;;0.00;0.00;;;;;;;18.41;100.00;100149.91;5070310;28;20384;-75
2022/09/07 07:21:05;;;;;;;0.40;0.40;;;;;;;18.49;100.00;100150.78;5070207;28;20526;-75
2022/09/07 07:23:31;;;;;;;0.00;0.00;;;;;;;18.58;100.00;100152.13;5070171;28;20225;-75
2022/09/07 07:26:04;;;;;;;0.00;0.00;;;;;;;18.68;100.00;100157.06;5070198;28;20171;-75
2022/09/07 07:28:30;;;;;;;0.00;0.00;;;;;;;18.79;100.00;100159.16;5070510;28;20174;-75
2022/09/07 07:30:57;;;;;;;0.20;0.20;;;;;;;18.94;100.00;100160.97;5068710;28;20212;-74
2022/09/07 07:33:23;;;;;;;0.30;0.30;;;;;;;19.08;99.79;100172.22;5068810;28;20186;-75
2022/09/07 07:35:48;;;;;;;0.00;0.00;;;;;;;19.18;98.70;100168.00;5070076;28;20237;-75
2022/09/07 07:38:14;;;;;;;0.07;0.07;;;;;;;19.26;97.59;100166.94;5070181;28;20209;-75
2022/09/07 07:40:39;;;;;;;0.00;0.00;;;;;;;19.34;97.92;100163.06;5068604;28;20173;-75
2022/09/07 07:43:05;;;;;;;0.00;0.00;;;;;;;19.39;97.40;100171.06;5070049;28;20171;-75
2022/09/07 07:45:30;;;;;;;0.00;0.00;;;;;;;19.40;96.47;100171.88;5069823;28;20213;-75
2022/09/07 07:47:55;;;;;;;0.00;0.00;;;;;;;19.43;95.54;100169.13;5070443;28;20175;-75
2022/09/07 07:50:21;;;;;;;0.20;0.20;;;;;;;19.56;94.79;100175.25;5070037;28;20179;-75
2022/09/07 07:52:47;;;;;;;0.13;0.13;;;;;;;19.57;93.61;100187.94;5070232;28;20641;-75
2022/09/07 07:55:12;;;;;;;1.90;0.30;;;;;;;19.52;93.46;100186.25;5072806;28;20198;-75
2022/09/07 07:57:37;;;;;;;0.00;0.00;;;;;;;19.59;93.43;100180.81;5074030;28;20635;-75
2022/09/07 08:00:03;;;;;;;0.00;0.00;;;;;;;19.57;92.93;100191.50;5073772;28;20266;-75
2022/09/07 08:02:29;;;;;;;0.07;0.07;;;;;;;19.40;92.28;100191.25;5074073;28;20187;-76
2022/09/07 08:04:54;;;;;;;0.50;0.50;;;;;;;19.48;93.00;100187.38;5073786;28;20206;-75
2022/09/07 08:07:19;;;;;;;0.00;0.00;;;;;;;19.63;93.29;100194.72;5073839;28;20588;-75
2022/09/07 08:09:46;;;;;;;0.30;0.30;;;;;;;19.55;93.57;100188.31;5073716;28;20170;-75
2022/09/07 08:12:15;;;;;;;0.20;0.20;;;;;;;19.55;93.95;100193.06;5073496;28;20174;-75
2022/09/07 08:14:41;;;;;;;1.10;1.10;;;;;;;19.46;93.67;100192.50;5073393;28;20261;-75
2022/09/07 08:17:07;;;;;;;0.23;0.23;;;;;;;19.51;93.80;100194.94;5073955;28;20315;-75
2022/09/07 08:19:33;;;;;;;0.00;0.00;;;;;;;19.60;92.40;100189.94;5073838;28;20178;-75
2022/09/07 08:21:58;;;;;;;0.50;0.50;;;;;;;19.73;91.77;100173.84;5073470;28;20178;-75
2022/09/07 08:24:23;;;;;;;1.40;1.40;;;;;;;19.76;90.92;100173.06;5073133;28;20206;-75
2022/09/07 08:26:49;;;;;;;0.30;0.30;;;;;;;19.94;90.91;100182.38;5073312;28;20577;-75
2022/09/07 08:29:14;;;;;;;0.00;0.00;;;;;;;19.88;89.89;100184.69;5073341;28;20175;-75
2022/09/07 08:31:40;;;;;;;0.00;0.00;;;;;;;19.91;90.69;100175.63;5073375;28;20170;-75
2022/09/07 08:34:06;;;;;;;0.50;0.50;;;;;;;20.02;90.92;100172.16;5073379;28;20199;-74
2022/09/07 08:36:32;;;;;;;0.00;0.00;;;;;;;20.12;91.40;100174.25;5073272;28;20566;-75
2022/09/07 08:38:58;;;;;;;0.30;0.30;;;;;;;20.18;89.12;100173.50;5072778;28;20186;-75
2022/09/07 08:41:45;;;;;;;0.00;0.00;;;;;;;20.29;88.42;100172.78;5073216;28;20185;-75
2022/09/07 08:44:49;;;;;;;0.17;0.17;;;;;;;20.29;86.63;100184.69;5072811;28;20202;-75
2022/09/07 08:47:24;;;;;;;0.00;0.00;;;;;;;20.56;87.54;100182.56;5071668;28;20167;-75
2022/09/07 08:50:05;;;;;;;0.00;0.00;;;;;;;20.58;85.37;100185.75;5072932;28;20215;-75
2022/09/07 08:53:10;;;;;;;0.00;0.00;;;;;;;20.71;84.50;100183.47;5072968;28;20178;-75
2022/09/07 08:55:57;;;;;;;0.10;0.10;;;;;;;20.77;83.79;100173.56;5072563;28;20274;-75
2022/09/07 08:58:41;;;;;;;0.00;0.00;;;;;;;20.82;82.77;100172.41;5073009;28;20233;-75
2022/09/07 09:01:15;;;;;;;0.00;0.00;;;;;;;21.00;82.24;100170.53;5073003;28;20174;-75
2022/09/07 09:03:41;;;;;;;0.00;0.00;;;;;;;20.84;80.81;100172.84;5072740;28;20619;-75
2022/09/07 09:06:17;;;;;;;0.10;0.10;;;;;;;20.95;81.78;100180.03;5071219;28;20552;-75
2022/09/07 09:09:04;;;;;;;0.00;0.00;;;;;;;20.96;80.88;100180.81;5072818;28;20183;-76
2022/09/07 09:11:47;;;;;;;0.00;0.00;;;;;;;21.15;80.79;100171.41;5072565;28;20181;-75
2022/09/07 09:14:18;;;;;;;0.00;0.00;;;;;;;21.24;81.30;100178.19;5072301;28;20441;-75
2022/09/07 09:16:53;;;;;;;0.00;0.00;;;;;;;21.36;79.60;100188.19;5072540;28;20181;-75
2022/09/07 09:19:45;;;;;;;0.30;0.30;;;;;;;21.18;78.11;100176.19;5072395;28;20658;-75
2022/09/07 09:22:18;;;;;;;0.10;0.10;;;;;;;21.22;77.70;100180.56;5072462;28;20594;-74
2022/09/07 09:24:50;;;;;;;0.00;0.00;;;;;;;21.21;77.80;100172.63;5071858;28;20209;-75
2022/09/07 09:27:15;;;;;;;0.00;0.00;;;;;;;21.51;78.32;100166.81;5072625;28;20233;-75
2022/09/07 09:29:41;;;;;;;0.00;0.00;;;;;;;21.56;76.54;100174.78;5072255;28;20618;-75
2022/09/07 09:32:34;;;;;;;0.00;0.00;;;;;;;21.67;76.74;100164.47;5072253;28;20181;-75
2022/09/07 09:35:23;;;;;;;0.00;0.00;;;;;;;21.82;76.94;100166.09;5071897;28;20692;-75
2022/09/07 09:37:48;;;;;;;0.00;0.00;;;;;;;21.63;75.75;100166.47;5066357;28;20285;-75
2022/09/07 09:40:21;;;;;;;1.23;1.23;;;;;;;21.65;75.92;100167.66;5071509;28;20255;-75
2022/09/07 09:42:56;;;;;;;0.00;0.00;;;;;;;21.93;75.37;100169.69;5072048;28;20685;-75
2022/09/07 09:45:26;;;;;;;0.00;0.00;;;;;;;21.93;73.53;100169.69;5071658;28;20308;-75
2022/09/07 09:47:53;;;;;;;0.30;0.30;;;;;;;21.75;72.45;100163.31;5071941;28;20549;-75
2022/09/07 09:50:35;;;;;;;0.00;0.00;;;;;;;22.07;73.83;100162.59;5072024;28;20182;-75
2022/09/07 09:53:01;;;;;;;0.10;0.10;;;;;;;22.01;72.96;100162.16;5071800;28;20183;-76
2022/09/07 09:55:36;;;;;;;0.00;0.00;;;;;;;21.99;72.92;100153.44;5071343;28;20204;-75
2022/09/07 09:58:26;;;;;;;0.00;0.00;;;;;;;21.97;72.84;100162.16;5072048;28;20178;-75
2022/09/07 10:01:00;;;;;;;0.00;0.00;;;;;;;21.94;73.80;100153.81;5071506;28;20184;-75
2022/09/07 10:03:26;;;;;;;0.67;0.67;;;;;;;22.05;73.56;100156.59;5071446;28;20180;-75
2022/09/07 10:05:53;;;;;;;0.00;0.00;;;;;;;22.08;73.09;100158.63;5071669;28;20535;-75
2022/09/07 10:08:27;;;;;;;0.00;0.00;;;;;;;22.06;71.97;100155.44;5071515;28;20387;-75
2022/09/07 10:11:02;;;;;;;0.00;0.00;;;;;;;22.08;72.91;100164.19;5071691;28;20321;-75
2022/09/07 10:13:34;;;;;;;0.00;0.00;;;;;;;21.93;72.01;100153.00;5071164;28;20243;-75
2022/09/07 10:16:04;;;;;;;0.00;0.00;;;;;;;21.98;72.41;100155.38;5071397;28;20173;-75
2022/09/07 10:19:05;;;;;;;0.30;0.30;;;;;;;21.94;72.37;100159.38;5070988;28;20180;-75
2022/09/07 10:21:31;;;;;;;0.00;0.00;;;;;;;22.04;72.51;100161.38;5047879;28;20191;-75
2022/09/07 10:23:59;;;;;;;0.00;0.00;;;;;;;22.09;73.29;100155.44;5069631;28;20823;-75
2022/09/07 10:26:33;;;;;;;0.00;0.00;;;;;;;22.37;73.31;100145.50;5071096;28;20240;-75
2022/09/07 10:29:26;;;;;;;0.00;0.00;;;;;;;22.58;71.72;100153.84;5070917;28;20229;-75
2022/09/07 10:32:04;;;;;;;0.00;0.00;;;;;;;22.80;70.31;100151.81;5071230;28;20634;-75
2022/09/07 10:34:46;;;;;;;0.00;0.00;;;;;;;22.99;69.87;100142.22;5071132;28;20177;-75
2022/09/07 10:37:32;;;;;;;0.00;0.00;;;;;;;22.95;67.72;100141.44;5070899;28;20216;-75
2022/09/07 10:40:16;;;;;;;0.00;0.00;;;;;;;23.17;67.50;100147.75;5070615;28;20587;-75
2022/09/07 10:42:52;;;;;;;0.83;0.83;;;;;;;23.04;66.74;100139.84;5070990;28;20284;-75
2022/09/07 10:45:35;;;;;;;0.00;0.00;;;;;;;23.20;66.76;100133.78;5070412;28;20216;-75
2022/09/07 10:49:00;;;;;;;1.43;1.43;;;;;;;23.32;66.25;100138.13;5070933;28;20169;-75
2022/09/07 10:51:34;;;;;;;0.00;0.00;;;;;;;23.36;66.07;100136.13;5028009;28;20191;-75
2022/09/07 10:54:02;;;;;;;0.00;0.00;;;;;;;23.44;66.33;100132.09;5027840;28;20179;-75
2022/09/07 10:56:33;;;;;;;0.00;0.00;;;;;;;23.52;66.45;100130.06;5050917;28;20201;-75
2022/09/07 10:59:14;;;;;;;0.10;0.10;;;;;;;23.56;67.46;100128.81;5070485;28;20543;-75
2022/09/07 11:02:02;;;;;;;0.00;0.00;;;;;;;23.53;66.46;100120.47;5071091;28;20185;-75
2022/09/07 11:04:45;;;;;;;0.00;0.00;;;;;;;23.60;65.70;100129.66;5070335;28;20205;-75
2022/09/07 11:07:16;;;;;;;0.00;0.00;;;;;;;23.67;65.42;100126.81;5069252;28;20178;-75
2022/09/07 11:10:13;;;;;;;0.00;0.00;;;;;;;23.58;65.94;100132.06;5070446;28;20261;-75
2022/09/07 11:12:42;;;;;;;0.37;0.37;;;;;;;23.74;65.59;100123.97;5057100;28;20527;-75
2022/09/07 11:15:15;;;;;;;0.00;0.00;;;;;;;23.86;64.41;100119.88;5070125;28;20202;-75
2022/09/07 11:17:51;;;;;;;0.00;0.00;;;;;;;23.86;64.39;100119.09;5070475;28;20175;-75
2022/09/07 11:20:24;;;;;;;0.00;0.00;;;;;;;24.00;64.09;100114.19;5070303;28;20178;-75
2022/09/07 11:22:55;;;;;;;0.20;0.20;;;;;;;24.16;63.32;100116.50;5068988;28;20544;-75
2022/09/07 11:25:30;;;;;;;0.00;0.00;;;;;;;24.29;63.24;100114.78;5070054;28;20201;-75
2022/09/07 11:28:13;;;;;;;0.00;0.00;;;;;;;24.56;62.77;100111.34;5070201;28;20777;-75
2022/09/07 11:30:49;;;;;;;0.00;0.00;;;;;;;24.67;61.15;100108.44;5069965;28;20673;-75
2022/09/07 11:33:38;;;;;;;0.00;0.00;;;;;;;24.69;61.61;100114.41;5070115;28;20599;-75
2022/09/07 11:36:06;;;;;;;0.10;0.10;;;;;;;24.39;62.79;100101.16;5070450;28;20178;-75
2022/09/07 11:38:44;;;;;;;0.00;0.00;;;;;;;24.55;62.71;100106.97;5070242;28;20170;-75
2022/09/07 11:41:18;;;;;;;0.00;0.00;;;;;;;24.39;62.29;100103.94;5069677;28;20522;-75